Time;durP1;ratioP1;P1;durP2;ratioP2;P2;SDS_P1;SDS_P2;PMS_P1;PMS_P2;Temp;Humidity;BMP_temperature;BMP_pressure;BME280_temperature;BME280_humidity;BME280_pressure;Samples;Min_cycle;Max_cycle;Signal;HPM_P1;HPM_P2
2022/12/21 00:01:32;;;;;;;44.50;20.67;;;1.20;90.30;;;0.76;57.49;95953.84;5078802;28;20524;-58
2022/12/21 00:04:01;;;;;;;44.53;21.07;;;1.10;90.30;;;0.74;57.41;95951.31;5080525;28;20450;-57
2022/12/21 00:06:30;;;;;;;37.37;17.50;;;1.10;90.30;;;0.73;57.03;95941.00;5083947;28;20497;-56
2022/12/21 00:08:59;;;;;;;32.80;17.10;;;1.10;90.30;;;0.70;56.66;95942.81;5079967;28;20487;-55
2022/12/21 00:11:26;;;;;;;33.97;18.70;;;1.10;90.50;;;0.69;57.65;95946.31;5082501;28;20477;-56
2022/12/21 00:13:53;;;;;;;52.33;18.50;;;1.10;90.60;;;0.70;58.07;95936.81;5078214;28;20451;-56
2022/12/21 00:16:22;;;;;;;40.40;18.13;;;1.10;90.50;;;0.68;57.80;95934.28;5084809;28;21886;-55
2022/12/21 00:18:51;;;;;;;32.23;16.90;;;1.10;90.40;;;0.68;57.80;95938.59;5083932;28;20790;-55
2022/12/21 00:21:20;;;;;;;36.90;17.70;;;1.00;90.70;;;0.66;57.33;95932.63;5083212;28;20523;-55
2022/12/21 00:23:48;;;;;;;29.60;16.83;;;1.00;90.50;;;0.66;56.95;95930.03;5079328;28;20443;-56
2022/12/21 00:26:18;;;;;;;33.13;17.10;;;1.00;90.40;;;0.62;57.74;95934.50;5081471;28;20473;-56
2022/12/21 00:28:45;;;;;;;36.33;17.53;;;1.00;90.60;;;0.62;57.02;95938.78;5086059;28;20462;-56
2022/12/21 00:31:14;;;;;;;34.87;15.87;;;1.00;90.70;;;0.60;57.83;95931.09;5078883;28;20490;-62
2022/12/21 00:33:42;;;;;;;42.47;16.77;;;1.00;90.90;;;0.58;57.74;95932.88;5081174;28;20462;-54
2022/12/21 00:36:13;;;;;;;30.10;15.50;;;1.00;90.90;;;0.55;57.13;95933.00;5081118;28;20470;-56
2022/12/21 00:38:41;;;;;;;40.83;18.90;;;0.90;90.90;;;0.52;57.90;95931.34;5082488;28;20453;-57
2022/12/21 00:41:09;;;;;;;36.37;16.40;;;0.90;90.90;;;0.51;57.56;95924.50;5082018;28;20474;-55
2022/12/21 00:43:38;;;;;;;46.50;17.80;;;0.90;90.90;;;0.51;58.57;95923.63;5079461;28;20442;-55
2022/12/21 00:46:05;;;;;;;32.40;17.33;;;0.90;90.90;;;0.51;58.17;95926.22;5082117;28;20469;-56
2022/12/21 00:48:34;;;;;;;38.60;18.63;;;0.90;90.90;;;0.50;58.19;95921.97;5082010;28;20540;-56
2022/12/21 00:51:04;;;;;;;48.83;19.50;;;0.90;90.90;;;0.50;57.41;95919.38;5082526;28;20490;-55
2022/12/21 00:53:33;;;;;;;40.17;17.30;;;0.90;91.00;;;0.49;58.31;95913.34;5085146;28;20454;-55
2022/12/21 00:56:01;;;;;;;38.00;17.50;;;0.90;91.00;;;0.48;57.61;95908.22;5082376;28;20532;-55
2022/12/21 00:58:29;;;;;;;53.73;18.40;;;0.90;91.00;;;0.45;58.28;95900.56;5084071;28;20446;-57
2022/12/21 01:00:57;;;;;;;37.73;18.40;;;0.90;91.40;;;0.44;58.22;95893.72;5084908;28;20473;-55
2022/12/21 01:03:25;;;;;;;38.70;19.53;;;0.80;91.20;;;0.43;57.54;95902.34;5080264;28;20523;-56
2022/12/21 01:05:53;;;;;;;37.67;19.27;;;0.80;91.20;;;0.42;57.47;95898.94;5081730;28;20466;-55
2022/12/21 01:08:21;;;;;;;34.30;17.37;;;0.80;91.10;;;0.43;58.08;95897.19;5079795;28;20523;-57
2022/12/21 01:10:49;;;;;;;43.83;18.00;;;0.80;91.10;;;0.42;58.74;95901.53;5081213;28;20493;-56
2022/12/21 01:13:17;;;;;;;37.37;18.40;;;0.80;91.20;;;0.41;58.32;95897.22;5081377;28;20806;-57
2022/12/21 01:15:45;;;;;;;33.33;16.37;;;0.80;91.20;;;0.40;57.55;95892.13;5079081;28;20475;-57
2022/12/21 01:18:12;;;;;;;34.87;16.77;;;0.80;91.10;;;0.39;57.99;95898.19;5080995;28;20531;-59
2022/12/21 01:20:40;;;;;;;37.27;17.20;;;0.80;91.00;;;0.35;57.89;95895.69;5075123;28;20497;-55
2022/12/21 01:23:07;;;;;;;30.80;16.67;;;0.80;91.10;;;0.34;58.03;95894.03;5077558;28;20984;-56
2022/12/21 01:25:35;;;;;;;32.70;17.77;;;0.80;91.10;;;0.33;57.59;95894.91;5080219;28;20481;-55
2022/12/21 01:28:04;;;;;;;43.33;19.70;;;0.70;91.20;;;0.30;58.32;95887.25;5081357;28;20473;-56
2022/12/21 01:30:31;;;;;;;42.97;18.20;;;0.70;91.20;;;0.29;57.64;95887.31;5084312;28;20497;-55
2022/12/21 01:32:58;;;;;;;42.43;21.50;;;0.70;91.20;;;0.28;58.14;95891.66;5078001;28;21007;-56
2022/12/21 01:35:25;;;;;;;52.43;23.30;;;0.70;91.30;;;0.27;58.45;95886.53;5080541;28;20524;-56
2022/12/21 01:37:53;;;;;;;41.30;20.60;;;0.60;91.30;;;0.25;58.19;95884.00;5088170;28;20996;-55
2022/12/21 01:40:20;;;;;;;40.17;20.53;;;0.60;91.40;;;0.24;58.42;95881.44;5076499;28;20767;-54
2022/12/21 01:42:47;;;;;;;35.10;18.50;;;0.60;91.40;;;0.24;57.76;95878.88;5085058;28;20817;-58
2022/12/21 01:45:27;;;;;;;40.07;18.83;;;0.60;91.40;;;0.24;58.54;95876.28;5078777;28;20561;-57
2022/12/21 01:47:56;;;;;;;41.93;20.07;;;0.60;91.50;;;0.21;58.11;95874.63;5079040;28;20453;-55
2022/12/21 01:50:32;;;;;;;39.83;20.23;;;0.60;91.50;;;0.20;58.19;95870.34;5077769;28;20838;-57
2022/12/21 01:53:02;;;;;;;35.63;19.37;;;0.60;91.60;;;0.17;58.46;95870.44;5077273;28;20826;-55
2022/12/21 01:55:29;;;;;;;33.43;17.73;;;0.60;91.80;;;0.16;58.13;95858.44;5083471;28;20478;-55
2022/12/21 01:57:56;;;;;;;38.23;16.20;;;0.60;91.70;;;0.15;58.38;95869.66;5084067;28;20458;-55
2022/12/21 02:00:25;;;;;;;36.60;17.07;;;0.50;91.80;;;0.15;58.86;95860.16;5081715;28;20539;-55
2022/12/21 02:02:55;;;;;;;29.10;14.47;;;0.50;91.80;;;0.15;58.34;95856.72;5077140;28;20849;-55
2022/12/21 02:05:28;;;;;;;30.20;14.00;;;0.50;91.80;;;0.14;57.90;95855.91;5070593;28;20456;-55
2022/12/21 02:07:55;;;;;;;29.70;14.17;;;0.50;91.70;;;0.14;58.49;95855.03;5077530;28;20446;-57
2022/12/21 02:10:23;;;;;;;27.83;15.47;;;0.50;91.80;;;0.12;58.78;95852.50;5077860;28;20865;-56
2022/12/21 02:12:51;;;;;;;35.13;16.73;;;0.50;91.90;;;0.11;58.68;95847.38;5080086;28;21157;-55
2022/12/21 02:15:18;;;;;;;28.07;15.37;;;0.50;92.00;;;0.10;58.42;95848.28;5082197;28;20478;-56
2022/12/21 02:17:52;;;;;;;30.63;16.10;;;0.50;92.00;;;0.09;59.15;95852.59;5075995;28;20498;-53
2022/12/21 02:20:47;;;;;;;29.20;16.23;;;0.50;92.10;;;0.11;58.58;95849.97;5080144;28;20474;-56
2022/12/21 02:23:36;;;;;;;32.03;16.07;;;0.50;92.20;;;0.09;58.64;95844.00;5075814;28;20461;-56
2022/12/21 02:26:22;;;;;;;30.93;15.97;;;0.50;92.20;;;0.07;58.84;95844.06;5077999;28;20484;-56
2022/12/21 02:29:15;;;;;;;29.07;14.80;;;0.50;92.20;;;0.06;58.65;95847.53;5080300;28;20452;-56
2022/12/21 02:31:46;;;;;;;30.40;15.60;;;0.50;92.30;;;0.06;58.84;95844.09;5081346;28;20450;-55
2022/12/21 02:34:17;;;;;;;26.50;13.53;;;0.50;92.50;;;0.05;59.12;95845.88;5081693;28;20502;-56
2022/12/21 02:36:49;;;;;;;28.90;14.53;;;0.50;92.50;;;0.05;59.03;95842.41;5075746;28;21069;-56
2022/12/21 02:39:22;;;;;;;38.47;16.23;;;0.40;92.50;;;0.06;59.05;95836.34;5080969;28;20462;-56
2022/12/21 02:41:58;;;;;;;41.13;17.60;;;0.50;92.60;;;0.06;59.57;95841.53;5076950;28;20446;-56
2022/12/21 02:44:35;;;;;;;35.70;16.53;;;0.50;92.50;;;0.04;58.87;95835.56;5079570;28;21031;-58
2022/12/21 02:47:09;;;;;;;39.77;17.97;;;0.50;92.50;;;0.04;59.21;95838.16;5083104;28;20472;-56
2022/12/21 02:49:40;;;;;;;33.70;16.10;;;0.40;92.40;;;0.04;59.00;95830.41;5082367;28;20489;-55
2022/12/21 02:52:10;;;;;;;26.17;13.10;;;0.40;92.40;;;0.02;58.68;95832.16;5082505;28;20449;-56
2022/12/21 02:54:39;;;;;;;29.27;13.83;;;0.40;92.40;;;0.00;59.23;95827.06;5080639;28;20911;-58
2022/12/21 02:57:06;;;;;;;22.53;12.87;;;0.40;92.30;;;-0.03;59.31;95830.59;5082943;28;20839;-55
2022/12/21 02:59:37;;;;;;;25.60;12.77;;;0.40;92.50;;;-0.04;58.27;95828.06;5091028;28;20848;-56
2022/12/21 03:02:45;;;;;;;26.90;12.70;;;0.40;92.40;;;-0.04;58.42;95825.47;5075276;28;20960;-57
2022/12/21 03:05:35;;;;;;;20.53;11.90;;;0.30;92.30;;;-0.06;59.02;95833.28;5077672;28;20553;-57
2022/12/21 03:08:11;;;;;;;30.90;12.37;;;0.40;92.50;;;-0.09;58.96;95817.88;5082595;28;20457;-55
2022/12/21 03:10:48;;;;;;;23.17;11.60;;;0.30;92.30;;;-0.10;58.56;95816.19;5085348;28;20492;-55
2022/12/21 03:13:22;;;;;;;24.33;11.97;;;0.30;92.40;;;-0.12;59.06;95819.75;5082364;28;20465;-57
2022/12/21 03:15:53;;;;;;;25.00;12.57;;;0.30;92.50;;;-0.13;58.76;95815.44;5085805;28;20591;-58
2022/12/21 03:18:26;;;;;;;18.23;11.47;;;0.30;92.50;;;-0.12;59.41;95806.81;5081299;28;20457;-56
2022/12/21 03:20:59;;;;;;;22.20;12.33;;;0.30;92.60;;;-0.13;58.83;95811.13;5086027;28;20478;-57
2022/12/21 03:23:32;;;;;;;27.03;12.63;;;0.30;92.70;;;-0.12;59.39;95807.66;5079567;28;20451;-57
2022/12/21 03:26:01;;;;;;;26.90;11.53;;;0.30;92.70;;;-0.10;58.83;95802.41;5084416;28;20458;-56
2022/12/21 03:28:30;;;;;;;22.37;12.47;;;0.30;92.70;;;-0.12;59.29;95794.72;5080938;28;20967;-56
2022/12/21 03:30:59;;;;;;;20.17;11.80;;;0.30;92.70;;;-0.14;59.15;95799.09;5087268;28;20516;-56
2022/12/21 03:33:30;;;;;;;22.60;11.90;;;0.30;92.70;;;-0.18;59.14;95787.16;5080734;28;20450;-56
2022/12/21 03:36:01;;;;;;;26.10;11.80;;;0.30;92.50;;;-0.21;58.83;95797.63;5083390;28;20560;-54
2022/12/21 03:38:31;;;;;;;28.53;12.97;;;0.20;92.50;;;-0.22;59.29;95794.19;5080258;28;20458;-54
2022/12/21 03:40:59;;;;;;;26.40;12.60;;;0.20;92.60;;;-0.24;59.39;95792.53;5082304;28;20993;-56
2022/12/21 03:43:28;;;;;;;37.80;13.60;;;0.20;92.80;;;-0.24;58.85;95788.22;5088564;28;20442;-57
2022/12/21 03:45:57;;;;;;;34.43;15.43;;;0.20;92.70;;;-0.28;59.13;95780.59;5080124;28;20476;-58
2022/12/21 03:48:27;;;;;;;32.13;15.67;;;0.10;92.40;;;-0.33;59.21;95785.09;5084069;28;20465;-56
2022/12/21 03:50:56;;;;;;;34.63;16.50;;;0.10;92.70;;;-0.41;58.80;95781.00;5085037;28;20558;-56
2022/12/21 03:53:31;;;;;;;33.73;15.07;;;0.00;92.50;;;-0.46;59.17;95772.56;5081163;28;20454;-54
2022/12/21 03:56:00;;;;;;;30.53;14.73;;;0.00;92.70;;;-0.51;59.71;95779.66;5078121;28;20860;-56
2022/12/21 03:58:27;;;;;;;28.50;13.67;;;0.00;92.90;;;-0.50;59.37;95776.16;5083884;28;20519;-55
2022/12/21 04:01:00;;;;;;;23.37;13.70;;;-0.10;93.10;;;-0.48;59.58;95776.97;5087458;28;20585;-55
2022/12/21 04:03:29;;;;;;;32.47;15.00;;;-0.10;93.20;;;-0.47;59.69;95776.06;5082660;28;20570;-56
2022/12/21 04:06:00;;;;;;;34.33;17.10;;;0.00;93.20;;;-0.43;59.80;95774.22;5078821;28;20482;-55
2022/12/21 04:08:27;;;;;;;32.60;15.90;;;0.00;93.20;;;-0.42;59.90;95768.16;5082411;28;20438;-55
2022/12/21 04:10:54;;;;;;;28.50;16.10;;;0.00;93.60;;;-0.39;59.81;95768.91;5086561;28;20610;-55
2022/12/21 04:13:20;;;;;;;35.03;15.53;;;0.00;93.30;;;-0.36;59.90;95773.09;5076076;28;20536;-57
2022/12/21 04:16:06;;;;;;;30.87;14.93;;;0.00;93.20;;;-0.33;59.97;95775.59;5077599;28;20530;-54
2022/12/21 04:21:19;;;;;;;35.90;17.00;;;0.10;93.20;;;-0.38;59.45;95773.16;5086349;28;20476;-56
2022/12/21 04:29:16;;;;;;;49.67;22.93;;;0.00;93.20;;;-0.42;59.22;95757.81;5081893;28;20429;-58
2022/12/21 04:31:43;;;;;;;39.80;20.60;;;0.00;93.20;;;-0.45;59.70;95753.59;5083670;28;20489;-56
2022/12/21 04:34:10;;;;;;;45.63;22.87;;;0.00;93.20;;;-0.46;59.70;95745.91;5088227;28;20572;-57
2022/12/21 04:39:24;;;;;;;43.37;22.00;;;0.00;93.20;;;-0.49;59.91;95752.00;5085116;28;20863;-57
2022/12/21 04:41:51;;;;;;;54.97;24.70;;;0.00;93.20;;;-0.49;59.82;95746.00;5083698;28;20458;-57
2022/12/21 04:44:19;;;;;;;52.27;23.60;;;-0.10;93.30;;;-0.48;59.65;95742.50;5084207;28;20520;-56
2022/12/21 04:46:46;;;;;;;42.93;21.57;;;-0.10;93.40;;;-0.47;59.91;95739.03;5085582;28;20983;-55
2022/12/21 04:49:13;;;;;;;51.20;22.57;;;-0.10;93.40;;;-0.48;59.70;95745.97;5087404;28;20527;-58
2022/12/21 04:51:42;;;;;;;45.87;21.70;;;0.00;93.50;;;-0.47;59.69;95747.63;5078005;28;20511;-59
2022/12/21 04:54:09;;;;;;;48.93;24.40;;;-0.10;93.40;;;-0.44;59.96;95749.28;5090140;28;20457;-56
2022/12/21 04:56:36;;;;;;;40.53;20.57;;;0.00;93.50;;;-0.44;59.89;95744.09;5080666;28;20523;-57
2022/12/21 04:59:03;;;;;;;37.07;20.80;;;0.00;93.60;;;-0.43;60.19;95753.56;5084904;28;20450;-58
2022/12/21 05:01:31;;;;;;;40.37;18.13;;;0.00;93.60;;;-0.43;59.51;95738.88;5079598;28;20450;-56
2022/12/21 05:03:58;;;;;;;45.63;19.93;;;0.00;93.50;;;-0.41;59.85;95752.59;5080725;28;20504;-58
2022/12/21 05:06:25;;;;;;;31.83;16.17;;;0.00;93.40;;;-0.43;59.49;95749.22;5075165;28;20921;-56
2022/12/21 05:08:54;;;;;;;44.70;17.80;;;0.00;93.40;;;-0.41;59.75;95749.16;5079899;28;20454;-59
2022/12/21 05:11:23;;;;;;;25.17;14.33;;;0.00;93.30;;;-0.41;59.85;95744.00;5085984;28;21009;-58
2022/12/21 05:13:50;;;;;;;27.93;14.70;;;0.00;93.40;;;-0.42;60.10;95742.31;5083037;28;20466;-58
2022/12/21 05:16:20;;;;;;;27.00;14.13;;;0.00;93.40;;;-0.44;59.65;95742.34;5083712;28;20563;-56
2022/12/21 05:18:48;;;;;;;28.30;14.23;;;0.00;93.20;;;-0.44;59.14;95744.09;5079154;28;20542;-54
2022/12/21 05:21:16;;;;;;;24.33;13.73;;;0.00;93.20;;;-0.45;59.67;95738.09;5086941;28;20489;-55
2022/12/21 05:23:43;;;;;;;34.77;14.70;;;0.00;93.20;;;-0.42;59.34;95739.72;5080274;28;20562;-57
2022/12/21 05:26:11;;;;;;;28.93;14.03;;;-0.10;93.10;;;-0.43;59.40;95738.88;5086149;28;20474;-58
2022/12/21 05:28:39;;;;;;;22.17;13.80;;;0.00;93.20;;;-0.44;59.32;95738.94;5079629;28;20962;-56
2022/12/21 05:31:06;;;;;;;34.27;16.00;;;0.00;93.20;;;-0.47;59.02;95739.03;5081251;28;20502;-57
2022/12/21 05:33:33;;;;;;;41.53;15.23;;;0.00;93.10;;;-0.50;59.26;95736.56;5086081;28;20450;-56
2022/12/21 05:36:03;;;;;;;28.00;12.93;;;-0.10;93.00;;;-0.52;59.24;95738.34;5082264;28;20474;-58
2022/12/21 05:38:30;;;;;;;30.63;14.90;;;-0.10;93.20;;;-0.55;59.53;95741.88;5079416;28;20948;-56
2022/12/21 05:40:57;;;;;;;34.90;15.70;;;-0.10;93.20;;;-0.59;59.32;95730.81;5091268;28;20519;-55
2022/12/21 05:43:26;;;;;;;36.80;15.97;;;-0.10;93.20;;;-0.61;59.33;95732.59;5084733;28;20473;-55
2022/12/21 05:45:54;;;;;;;38.57;15.80;;;-0.20;93.10;;;-0.62;59.02;95738.66;5090418;28;20477;-55
2022/12/21 05:48:21;;;;;;;34.20;18.53;;;-0.20;93.10;;;-0.63;59.31;95738.72;5087897;28;20472;-56
2022/12/21 05:50:48;;;;;;;33.80;17.00;;;-0.20;93.20;;;-0.63;59.95;95738.72;5085903;28;20498;-54
2022/12/21 05:53:15;;;;;;;28.53;15.33;;;-0.20;93.40;;;-0.62;60.04;95735.22;5083422;28;20847;-57
2022/12/21 05:55:44;;;;;;;33.77;18.77;;;-0.20;93.40;;;-0.62;59.64;95735.22;5080448;28;20490;-55
2022/12/21 05:58:12;;;;;;;33.43;17.50;;;-0.20;93.40;;;-0.61;60.10;95732.59;5079983;28;20534;-56
2022/12/21 06:00:41;;;;;;;38.00;20.23;;;-0.20;93.40;;;-0.59;59.70;95735.13;5085769;28;20493;-63
2022/12/21 06:03:09;;;;;;;34.43;16.93;;;-0.20;93.50;;;-0.60;59.64;95733.44;5082431;28;20453;-58
2022/12/21 06:05:36;;;;;;;37.73;17.03;;;-0.20;93.40;;;-0.64;59.97;95731.84;5080207;28;20476;-57
2022/12/21 06:08:03;;;;;;;29.93;16.23;;;-0.20;93.60;;;-0.66;60.08;95731.06;5078427;28;20454;-56
2022/12/21 06:10:31;;;;;;;32.90;15.87;;;-0.20;93.80;;;-0.66;60.31;95728.47;5078996;28;20474;-55
2022/12/21 06:12:58;;;;;;;33.53;16.40;;;-0.20;93.80;;;-0.64;60.09;95719.75;5077176;28;20520;-58
2022/12/21 06:15:25;;;;;;;46.90;17.87;;;-0.20;93.80;;;-0.55;59.80;95723.78;5071818;28;20469;-56
2022/12/21 06:17:54;;;;;;;39.03;17.20;;;-0.10;93.90;;;-0.27;59.82;95725.44;5077490;28;20447;-56
2022/12/21 06:20:21;;;;;;;36.00;18.23;;;0.10;94.10;;;0.12;59.65;95733.50;5079566;28;20458;-54
2022/12/21 06:22:48;;;;;;;33.33;16.73;;;0.50;93.90;;;0.54;59.34;95732.00;5082397;28;20594;-56
2022/12/21 06:25:16;;;;;;;29.67;15.47;;;0.90;93.60;;;0.98;58.09;95729.44;5079352;28;20531;-58
2022/12/21 06:27:43;;;;;;;35.33;17.93;;;1.40;93.30;;;1.42;57.42;95733.75;5078598;28;20457;-55
2022/12/21 06:30:11;;;;;;;41.57;16.77;;;1.80;92.80;;;1.84;58.56;95727.66;5079287;28;20478;-53
2022/12/21 06:32:38;;;;;;;43.20;18.63;;;2.20;94.50;;;2.32;61.20;95723.84;5078613;28;20969;-56
2022/12/21 06:35:08;;;;;;;40.27;18.97;;;2.70;96.20;;;2.82;61.06;95716.38;5079432;28;20465;-57
2022/12/21 06:37:35;;;;;;;36.13;16.90;;;3.20;95.70;;;3.30;57.25;95724.53;5079655;28;20462;-57
2022/12/21 06:40:03;;;;;;;63.57;18.47;;;3.70;92.90;;;3.78;56.00;95725.63;5078417;28;20884;-56
2022/12/21 06:42:30;;;;;;;48.70;17.77;;;4.20;91.60;;;4.27;54.96;95725.69;5080343;28;20838;-57
2022/12/21 06:44:57;;;;;;;40.17;17.40;;;4.70;90.90;;;4.77;53.56;95730.91;5078035;28;20474;-54
2022/12/21 06:47:24;;;;;;;54.37;16.10;;;5.10;89.30;;;5.21;52.71;95730.22;5079629;28;20481;-57
2022/12/21 06:49:52;;;;;;;40.63;19.00;;;5.60;86.80;;;5.55;51.84;95723.94;5077808;28;20474;-57
2022/12/21 06:52:20;;;;;;;41.50;19.00;;;5.90;85.10;;;5.80;50.86;95725.13;5079631;28;20546;-57
2022/12/21 06:54:47;;;;;;;37.80;19.07;;;6.20;82.90;;;6.12;50.20;95721.56;5072926;28;20946;-54
2022/12/21 06:57:15;;;;;;;38.27;18.40;;;6.50;81.00;;;6.57;50.06;95728.41;5077595;28;20451;-56
2022/12/21 06:59:42;;;;;;;36.63;18.07;;;6.90;80.30;;;7.13;49.47;95731.03;5077602;28;21080;-56
2022/12/21 07:02:10;;;;;;;46.03;23.33;;;7.40;80.40;;;7.67;48.46;95730.19;5080942;28;20449;-56
2022/12/21 07:04:37;;;;;;;58.57;24.87;;;7.90;77.70;;;8.16;46.46;95731.31;5077437;28;20489;-59
2022/12/21 07:07:04;;;;;;;62.27;29.40;;;8.40;74.20;;;8.48;46.83;95735.34;5080473;28;20449;-56
2022/12/21 07:09:33;;;;;;;68.20;30.70;;;8.70;73.40;;;8.47;44.54;95742.34;5069473;28;20474;-57
2022/12/21 07:12:00;;;;;;;66.83;31.00;;;8.80;67.50;;;8.27;45.56;95738.44;5077479;28;20894;-54
2022/12/21 07:14:28;;;;;;;68.40;33.40;;;8.70;69.10;;;8.01;44.14;95734.94;5076700;28;20481;-55
2022/12/21 07:16:55;;;;;;;59.03;30.93;;;8.50;66.60;;;7.67;44.91;95745.91;5079921;28;20458;-57
2022/12/21 07:19:22;;;;;;;67.27;32.37;;;8.20;65.70;;;7.46;45.75;95740.28;5077228;28;20451;-56
2022/12/21 07:21:50;;;;;;;62.57;30.70;;;8.00;67.80;;;7.37;46.13;95740.88;5079931;28;20453;-55
2022/12/21 07:24:17;;;;;;;78.67;30.43;;;7.90;68.30;;;7.42;46.60;95732.72;5078220;28;20864;-56
2022/12/21 07:26:45;;;;;;;84.60;31.47;;;7.90;68.80;;;7.51;46.47;95738.22;5080483;28;20923;-57
2022/12/21 07:29:13;;;;;;;59.83;29.20;;;8.00;69.40;;;7.54;46.05;95729.31;5077536;28;20450;-58
2022/12/21 07:31:40;;;;;;;54.87;29.90;;;8.10;68.50;;;7.49;45.87;95734.00;5084547;28;20489;-54
2022/12/21 07:34:07;;;;;;;59.53;29.77;;;8.00;67.60;;;7.41;46.05;95733.66;5080089;28;20458;-56
2022/12/21 07:36:35;;;;;;;62.00;30.40;;;8.00;67.00;;;7.28;45.77;95726.63;5084242;28;20503;-56
2022/12/21 07:39:02;;;;;;;70.20;28.97;;;7.90;67.10;;;7.16;46.07;95725.59;5080047;28;20566;-56
2022/12/21 07:41:29;;;;;;;66.73;32.10;;;7.70;67.50;;;7.07;46.39;95731.41;5083139;28;20473;-57
2022/12/21 07:43:58;;;;;;;72.30;32.50;;;7.60;68.00;;;7.07;46.51;95723.56;5082712;28;20451;-55
2022/12/21 07:46:25;;;;;;;75.40;34.73;;;7.60;67.60;;;7.21;45.74;95727.09;5083118;28;20473;-55
2022/12/21 07:48:52;;;;;;;85.63;35.37;;;7.60;67.40;;;7.38;45.10;95726.84;5080365;28;20455;-57
2022/12/21 07:51:19;;;;;;;99.07;37.27;;;7.80;66.90;;;7.58;45.98;95724.72;5081979;28;20512;-57
2022/12/21 07:53:47;;;;;;;88.47;37.67;;;7.90;67.30;;;7.79;44.33;95736.41;5076878;28;20449;-55
2022/12/21 07:56:15;;;;;;;77.47;35.00;;;8.00;66.30;;;8.05;44.49;95734.66;5082600;28;21039;-55
2022/12/21 07:58:42;;;;;;;85.10;35.10;;;8.20;66.40;;;8.45;44.38;95727.69;5079406;28;20451;-55
2022/12/21 08:01:12;;;;;;;83.70;36.30;;;8.60;66.50;;;9.01;43.65;95728.13;5082237;28;20469;-54
2022/12/21 08:03:41;;;;;;;70.63;34.47;;;9.00;65.70;;;9.66;43.27;95728.72;5080568;28;20644;-56
2022/12/21 08:06:08;;;;;;;88.67;39.03;;;9.60;65.30;;;10.30;42.02;95722.22;5081180;28;20695;-57
2022/12/21 08:08:36;;;;;;;84.53;38.67;;;10.10;62.80;;;10.91;41.77;95717.50;5081454;28;20923;-57
2022/12/21 08:11:03;;;;;;;64.67;36.23;;;10.70;61.80;;;11.50;40.53;95712.00;5080864;28;20581;-55
2022/12/21 08:13:30;;;;;;;81.47;37.93;;;11.30;60.00;;;12.04;40.00;95705.81;5082121;28;20516;-57
2022/12/21 08:16:01;;;;;;;74.63;36.67;;;11.80;59.10;;;12.56;39.72;95703.19;5080710;28;20757;-55
2022/12/21 08:18:30;;;;;;;74.23;37.37;;;12.30;58.50;;;13.04;38.95;95699.94;5082858;28;20548;-56
2022/12/21 08:20:58;;;;;;;72.67;39.23;;;12.80;57.20;;;13.49;37.74;95703.09;5081941;28;21059;-58
2022/12/21 08:23:25;;;;;;;77.10;38.23;;;13.30;56.00;;;13.84;37.45;95699.94;5085466;28;20459;-53
2022/12/21 08:25:52;;;;;;;78.03;37.40;;;13.60;54.70;;;14.08;36.59;95696.00;5079803;28;20987;-52
2022/12/21 08:28:19;;;;;;;67.23;36.27;;;13.90;53.30;;;14.15;34.27;95686.53;5082683;28;20458;-58
2022/12/21 08:30:47;;;;;;;66.53;36.10;;;14.00;49.60;;;14.16;36.40;95675.00;5081424;28;20477;-58
2022/12/21 08:33:14;;;;;;;66.27;37.43;;;14.10;52.60;;;14.27;35.90;95674.81;5083321;28;20497;-56
2022/12/21 08:35:44;;;;;;;66.03;35.30;;;14.20;51.60;;;14.34;34.62;95675.06;5073937;28;20550;-55
2022/12/21 08:38:11;;;;;;;77.53;36.40;;;14.30;50.60;;;14.33;36.03;95668.97;5081033;28;20446;-58
2022/12/21 08:40:38;;;;;;;69.23;34.80;;;14.30;51.40;;;14.29;35.80;95672.84;5078409;28;20467;-58
2022/12/21 08:43:06;;;;;;;72.10;35.70;;;14.30;51.00;;;14.31;34.75;95662.97;5083233;28;20501;-55
2022/12/21 08:45:33;;;;;;;63.60;36.10;;;14.30;49.90;;;14.31;34.75;95660.34;5079642;28;20474;-57
2022/12/21 08:48:00;;;;;;;71.63;36.57;;;14.30;49.20;;;14.35;35.39;95656.41;5082912;28;20453;-57
2022/12/21 08:50:27;;;;;;;62.20;34.07;;;14.30;50.50;;;14.52;35.33;95648.69;5078776;28;20466;-56
2022/12/21 08:52:56;;;;;;;76.20;37.53;;;14.40;50.10;;;14.74;35.23;95657.28;5077939;28;20490;-57
2022/12/21 08:55:23;;;;;;;88.93;36.03;;;14.60;50.10;;;14.98;34.54;95656.75;5078910;28;20483;-57
2022/12/21 08:57:51;;;;;;;69.07;37.47;;;14.80;49.70;;;15.08;34.31;95644.28;5079977;28;20824;-58
2022/12/21 09:00:18;;;;;;;61.33;37.60;;;15.00;49.20;;;15.09;34.21;95642.47;5078706;28;20491;-57
2022/12/21 09:02:46;;;;;;;62.23;37.37;;;15.00;48.60;;;15.11;32.29;95648.47;5081722;28;20446;-57
2022/12/21 09:05:13;;;;;;;71.43;39.77;;;15.00;47.20;;;15.08;33.06;95644.28;5080709;28;20478;-57
2022/12/21 09:07:40;;;;;;;85.37;39.00;;;15.00;46.20;;;15.05;33.71;95644.59;5081944;28;20454;-57
2022/12/21 09:10:10;;;;;;;55.27;33.03;;;14.90;47.70;;;15.09;31.94;95639.81;5080279;28;20471;-58
2022/12/21 09:12:37;;;;;;;80.83;35.70;;;14.90;44.90;;;14.97;32.97;95634.72;5081309;28;21025;-57
2022/12/21 09:15:06;;;;;;;57.70;32.07;;;14.90;46.30;;;14.91;34.01;95627.38;5080863;28;20478;-56
2022/12/21 09:17:33;;;;;;;56.70;29.57;;;14.80;47.90;;;15.01;33.04;95628.16;5080771;28;20454;-56
2022/12/21 09:20:00;;;;;;;52.43;30.53;;;14.80;46.80;;;15.16;34.08;95609.91;5083314;28;20844;-56
2022/12/21 09:22:28;;;;;;;49.37;29.53;;;15.00;48.30;;;15.35;32.83;95603.66;5080542;28;20442;-60
2022/12/21 09:24:55;;;;;;;61.20;30.17;;;15.10;46.70;;;15.46;33.45;95599.94;5078600;28;21007;-54
2022/12/21 09:27:24;;;;;;;56.13;28.67;;;15.30;47.50;;;15.54;32.52;95601.84;5080486;28;20827;-58
2022/12/21 09:29:51;;;;;;;49.53;28.43;;;15.30;45.40;;;15.53;31.28;95597.53;5081268;28;20467;-59
2022/12/21 09:32:18;;;;;;;61.73;29.00;;;15.40;44.70;;;15.49;32.89;95594.34;5083295;28;20493;-57
2022/12/21 09:34:46;;;;;;;61.17;29.17;;;15.30;45.90;;;15.59;31.90;95584.47;5080162;28;21135;-58
2022/12/21 09:37:13;;;;;;;55.13;28.80;;;15.30;45.80;;;15.63;31.55;95585.03;5079489;28;20446;-57
2022/12/21 09:39:40;;;;;;;54.50;30.10;;;15.40;44.40;;;15.68;32.67;95580.06;5081587;28;20474;-56
2022/12/21 09:42:18;;;;;;;62.10;30.20;;;15.40;45.40;;;15.92;32.88;95575.97;5082273;28;20441;-58
2022/12/21 09:45:11;;;;;;;62.73;31.97;;;15.50;46.50;;;16.27;31.23;95574.19;5080685;28;20471;-58
2022/12/21 09:47:43;;;;;;;60.70;29.73;;;15.90;44.90;;;16.54;32.44;95578.47;5076701;28;20443;-57
2022/12/21 09:50:16;;;;;;;52.30;29.20;;;16.10;45.90;;;16.88;31.75;95568.84;5078772;28;20483;-56
2022/12/21 09:52:45;;;;;;;63.97;29.60;;;16.50;45.90;;;17.21;31.43;95569.72;5074991;28;20471;-56
2022/12/21 09:55:16;;;;;;;49.23;29.10;;;16.80;45.60;;;17.56;31.01;95563.28;5077591;28;21064;-58
2022/12/21 09:57:43;;;;;;;50.60;28.00;;;17.20;44.70;;;17.85;30.17;95556.63;5079400;28;20502;-59
2022/12/21 10:00:17;;;;;;;61.47;30.40;;;17.50;43.40;;;18.10;29.68;95544.13;5078220;28;20999;-54
2022/12/21 10:03:11;;;;;;;50.33;28.70;;;17.80;43.20;;;18.40;30.24;95547.06;5080959;28;20909;-58
2022/12/21 10:06:31;;;;;;;58.17;31.00;;;18.00;43.70;;;18.80;29.45;95537.22;5078553;28;21080;-57
2022/12/21 10:09:37;;;;;;;51.67;29.53;;;18.40;43.50;;;19.08;27.07;95526.09;5080437;28;20454;-57
2022/12/21 10:12:15;;;;;;;47.90;30.77;;;18.70;40.50;;;19.17;28.71;95521.56;5078198;28;20490;-57
2022/12/21 10:14:53;;;;;;;66.07;32.00;;;18.90;41.10;;;19.21;28.67;95514.88;5078039;28;20478;-58
2022/12/21 10:17:33;;;;;;;57.07;32.90;;;19.00;40.40;;;19.14;28.83;95509.38;5081912;28;20452;-58
2022/12/21 10:20:10;;;;;;;53.07;31.60;;;18.90;40.80;;;19.16;28.66;95506.53;5078959;28;20465;-58
2022/12/21 10:22:39;;;;;;;55.90;33.00;;;18.90;40.80;;;19.29;27.39;95495.31;5081393;28;20437;-59
2022/12/21 10:25:14;;;;;;;53.63;33.23;;;19.00;39.20;;;19.42;28.75;95494.69;5081293;28;20466;-60
2022/12/21 10:27:43;;;;;;;58.53;33.27;;;19.20;41.00;;;19.76;28.67;95485.41;5078740;28;20464;-56
2022/12/21 10:30:13;;;;;;;70.53;32.07;;;19.40;41.20;;;20.23;28.11;95487.75;5081746;28;20474;-55
2022/12/21 10:32:44;;;;;;;51.60;32.40;;;19.70;41.50;;;20.69;27.44;95481.38;5079817;28;20489;-58
2022/12/21 10:35:21;;;;;;;67.37;34.10;;;20.10;39.90;;;20.99;26.81;95475.09;5081770;28;20478;-55